createdAt,value
2023-10-04T00:01:46.967Z,68.38
2023-10-04T00:06:50.046Z,68.02
2023-10-04T00:11:51.644Z,67.96
2023-10-04T00:16:53.597Z,68.05
2023-10-04T00:21:56.506Z,67.67
2023-10-04T00:26:58.168Z,68.28
2023-10-04T00:31:59.734Z,68.45
2023-10-04T00:37:02.716Z,69.48
2023-10-04T00:42:04.257Z,67.80
2023-10-04T00:47:06.543Z,68.68
2023-10-04T00:52:09.600Z,68.55
2023-10-04T00:57:11.266Z,68.93
2023-10-04T01:02:12.877Z,69.41
2023-10-04T01:07:18.008Z,69.83
2023-10-04T01:12:22.676Z,69.63
2023-10-04T01:17:24.314Z,69.86
2023-10-04T01:22:28.207Z,69.46
2023-10-04T01:27:29.841Z,69.56
2023-10-04T01:32:31.461Z,68.95
2023-10-04T01:37:34.326Z,69.59
2023-10-04T01:42:35.925Z,68.75
2023-10-04T01:47:37.729Z,69.44
2023-10-04T01:52:40.721Z,69.72
2023-10-04T01:57:42.299Z,70.25
2023-10-04T02:02:44.895Z,70.89
2023-10-04T02:07:48.042Z,71.57
2023-10-04T02:12:50.855Z,70.27
2023-10-04T02:17:52.479Z,70.06
2023-10-04T02:22:55.467Z,69.29
2023-10-04T02:27:57.048Z,69.70
2023-10-04T02:32:58.754Z,70.57
2023-10-04T02:38:02.545Z,70.90
2023-10-04T02:43:04.454Z,70.75
2023-10-04T02:48:06.838Z,71.84
2023-10-04T02:53:10.355Z,73.59
2023-10-04T02:58:11.952Z,73.75
2023-10-04T03:03:15.041Z,73.78
2023-10-04T03:08:18.558Z,74.26
2023-10-04T03:13:22.482Z,72.40
2023-10-04T03:18:24.106Z,73.08
2023-10-04T03:23:27.683Z,73.39
2023-10-04T03:28:29.250Z,72.98
2023-10-04T03:33:30.820Z,74.47
2023-10-04T03:38:34.012Z,75.55
2023-10-04T03:43:35.570Z,75.89
2023-10-04T03:48:37.224Z,76.20
2023-10-04T03:53:40.835Z,76.16
2023-10-04T03:58:42.336Z,75.66
2023-10-04T04:03:45.002Z,75.89
2023-10-04T04:08:48.438Z,75.52
2023-10-04T04:13:50.374Z,75.63
2023-10-04T04:18:51.968Z,75.91
2023-10-04T04:23:55.209Z,75.80
2023-10-04T04:28:56.852Z,75.67
2023-10-04T04:33:58.486Z,75.80
2023-10-04T04:39:01.691Z,75.03
2023-10-04T04:44:03.320Z,75.35
2023-10-04T04:49:05.596Z,74.32
2023-10-04T04:54:08.910Z,74.41
2023-10-04T04:59:10.580Z,74.13
2023-10-04T05:04:12.370Z,75.04
2023-10-04T05:09:15.443Z,75.50
2023-10-04T05:14:17.040Z,75.41
2023-10-04T05:19:18.615Z,75.63
2023-10-04T05:24:21.570Z,75.56
2023-10-04T05:29:23.215Z,76.10
2023-10-04T05:34:24.843Z,75.93
2023-10-04T05:39:27.821Z,76.43
2023-10-04T05:44:29.349Z,76.28
2023-10-04T05:49:32.391Z,76.51
2023-10-04T05:54:35.414Z,76.22
2023-10-04T05:59:37.015Z,76.44
2023-10-04T06:04:38.638Z,76.79
2023-10-04T06:09:41.883Z,77.06
2023-10-04T06:14:43.449Z,76.76
2023-10-04T06:19:45.072Z,75.80
2023-10-04T06:24:47.972Z,75.28
2023-10-04T06:29:49.534Z,74.61
2023-10-04T06:34:51.161Z,73.82
2023-10-04T06:39:54.122Z,73.31
2023-10-04T06:44:55.621Z,72.85
2023-10-04T06:49:57.288Z,71.78
2023-10-04T06:55:00.720Z,71.68
2023-10-04T07:00:02.462Z,70.93
2023-10-04T07:05:04.219Z,70.00
2023-10-04T07:10:08.513Z,69.24
2023-10-04T07:15:11.388Z,67.51
2023-10-04T07:20:13.597Z,67.53
2023-10-04T07:25:16.487Z,65.57
2023-10-04T07:30:18.008Z,64.84
2023-10-04T07:35:20.916Z,62.53
2023-10-04T07:40:25.270Z,60.15
2023-10-04T07:45:27.616Z,60.15
2023-10-04T07:50:29.333Z,60.43
2023-10-04T07:55:32.288Z,62.29
2023-10-04T08:00:35.308Z,61.39
2023-10-04T08:05:37.312Z,58.19
2023-10-04T08:10:40.769Z,57.74
2023-10-04T08:15:42.416Z,58.97
2023-10-04T08:20:44.074Z,56.74
2023-10-04T08:25:47.073Z,55.99
2023-10-04T08:30:48.899Z,55.01
2023-10-04T08:35:50.530Z,53.43
2023-10-04T08:40:53.490Z,54.26
2023-10-04T08:45:57.516Z,53.83
2023-10-04T08:51:08.702Z,53.49
2023-10-04T08:56:14.957Z,54.54
2023-10-04T09:01:35.717Z,52.41
2023-10-04T09:06:37.643Z,50.36
2023-10-04T09:11:40.672Z,52.27
2023-10-04T09:16:42.389Z,51.63
2023-10-04T09:21:44.518Z,50.60
2023-10-04T09:26:54.010Z,51.09
2023-10-04T09:31:55.613Z,48.39
2023-10-04T09:36:58.055Z,49.14
2023-10-04T09:42:01.762Z,47.19
2023-10-04T09:47:04.286Z,47.40
2023-10-04T09:52:08.096Z,47.22
2023-10-04T09:57:11.185Z,46.07
2023-10-04T10:02:15.373Z,44.83
2023-10-04T10:07:20.722Z,46.83
2023-10-04T10:12:24.371Z,47.14
2023-10-04T10:17:26.174Z,48.44
2023-10-04T10:22:28.348Z,46.23
2023-10-04T10:27:31.245Z,45.08
2023-10-04T10:32:32.895Z,45.30
2023-10-04T10:37:34.588Z,44.40
2023-10-04T10:43:05.937Z,47.85
2023-10-04T10:48:08.928Z,46.19
2023-10-04T10:53:11.847Z,47.04
2023-10-04T10:58:13.759Z,47.45
2023-10-04T11:03:19.792Z,47.38
2023-10-04T11:08:21.569Z,45.68
2023-10-04T11:13:25.398Z,46.79
2023-10-04T11:18:30.092Z,45.84
2023-10-04T11:23:31.851Z,45.58
2023-10-04T11:28:33.980Z,45.31
2023-10-04T11:33:50.552Z,46.07
2023-10-04T11:38:53.169Z,45.81
2023-10-04T11:43:58.210Z,44.39
2023-10-04T11:49:16.026Z,46.16
2023-10-04T11:54:17.927Z,46.38
2023-10-04T11:59:29.230Z,45.05
2023-10-04T12:04:33.752Z,45.65
2023-10-04T12:09:35.611Z,45.49
2023-10-04T12:14:37.280Z,45.35
2023-10-04T12:19:40.646Z,44.37
2023-10-04T12:24:42.668Z,44.05
2023-10-04T12:29:44.490Z,43.98
2023-10-04T12:34:47.971Z,42.10
2023-10-04T12:39:49.725Z,42.43
2023-10-04T12:44:52.950Z,42.73
2023-10-04T12:49:57.802Z,42.49
2023-10-04T12:54:59.369Z,42.10
2023-10-04T13:00:01.474Z,42.07
2023-10-04T13:05:05.135Z,42.03
2023-10-04T13:10:07.618Z,42.86
2023-10-04T13:15:10.492Z,41.84
2023-10-04T13:20:13.513Z,42.47
2023-10-04T13:25:15.341Z,41.27
2023-10-04T13:30:16.903Z,42.55
2023-10-04T13:35:19.798Z,42.35
2023-10-04T13:40:21.665Z,40.55
2023-10-04T13:45:23.373Z,40.92
2023-10-04T13:50:26.359Z,39.49
2023-10-04T13:55:27.867Z,39.33
2023-10-04T14:00:29.565Z,39.92
2023-10-04T14:05:32.650Z,38.99
2023-10-04T14:10:34.599Z,41.84
2023-10-04T14:15:36.138Z,42.66
2023-10-04T14:20:39.074Z,41.96
2023-10-04T14:25:40.826Z,42.51
2023-10-04T14:30:42.387Z,42.57
2023-10-04T14:35:46.601Z,43.27
2023-10-04T14:45:52.664Z,42.42
2023-10-04T14:56:03.220Z,42.85
2023-10-04T15:01:09.695Z,43.37
2023-10-04T15:06:15.739Z,43.10
2023-10-04T15:11:26.685Z,43.78
2023-10-04T15:16:28.364Z,41.68
2023-10-04T15:21:31.520Z,43.14
2023-10-04T15:26:33.111Z,43.70
2023-10-04T15:31:34.745Z,44.15
2023-10-04T15:36:37.784Z,44.84
2023-10-04T15:41:39.318Z,45.48
2023-10-04T15:46:41.023Z,46.53
2023-10-04T15:51:44.204Z,47.08
2023-10-04T15:56:45.834Z,47.31
2023-10-04T16:01:49.309Z,47.42
2023-10-04T16:06:52.431Z,47.36
2023-10-04T16:11:54.059Z,47.90
2023-10-04T16:16:55.669Z,48.37
2023-10-04T16:21:58.650Z,48.68
2023-10-04T16:27:00.247Z,49.84
2023-10-04T16:32:01.873Z,50.96
2023-10-04T16:37:04.941Z,51.16
2023-10-04T16:42:06.597Z,52.29
2023-10-04T16:47:08.175Z,53.59
2023-10-04T16:52:11.106Z,53.99
2023-10-04T16:57:12.652Z,53.90
2023-10-04T17:02:14.240Z,53.97
2023-10-04T17:07:17.382Z,54.39
2023-10-04T17:12:18.983Z,54.95
2023-10-04T17:17:20.601Z,55.16
2023-10-04T17:22:23.642Z,55.86
2023-10-04T17:27:25.250Z,56.41
2023-10-04T17:32:27.049Z,56.34
2023-10-04T17:37:30.068Z,55.91
2023-10-04T17:42:32.567Z,55.67
2023-10-04T17:47:34.251Z,55.48
2023-10-04T17:52:37.227Z,56.29
2023-10-04T17:57:39.442Z,56.80
2023-10-04T18:02:41.875Z,57.15
2023-10-04T18:07:44.886Z,57.31
2023-10-04T18:12:46.682Z,57.44
2023-10-04T18:17:49.344Z,58.03
2023-10-04T18:22:55.203Z,58.40
2023-10-04T18:27:56.854Z,58.68
2023-10-04T18:33:01.067Z,59.89
2023-10-04T18:38:05.380Z,59.55
2023-10-04T18:43:07.009Z,59.53
2023-10-04T18:48:08.761Z,61.41
2023-10-04T18:53:13.644Z,61.73
2023-10-04T18:58:15.423Z,61.69
2023-10-04T19:03:17.254Z,61.26
2023-10-04T19:08:20.338Z,60.96
2023-10-04T19:13:21.971Z,61.28
2023-10-04T19:18:23.581Z,61.89
2023-10-04T19:23:26.825Z,61.60
2023-10-04T19:28:28.652Z,61.89
2023-10-04T19:33:31.610Z,61.70
2023-10-04T19:38:34.693Z,61.61
2023-10-04T19:43:36.234Z,61.39
2023-10-04T19:48:39.290Z,62.00
2023-10-04T19:53:44.037Z,61.26
2023-10-04T19:58:45.639Z,61.57
2023-10-04T20:03:47.400Z,61.97
2023-10-04T20:08:50.779Z,62.15
2023-10-04T20:13:52.429Z,62.40
2023-10-04T20:18:54.005Z,62.14
2023-10-04T20:23:57.001Z,62.51
2023-10-04T20:28:58.722Z,63.35
2023-10-04T20:34:00.460Z,63.90
2023-10-04T20:39:03.563Z,63.91
2023-10-04T20:44:06.015Z,63.69
2023-10-04T20:49:07.976Z,63.86
2023-10-04T20:54:11.002Z,65.07
2023-10-04T20:59:12.600Z,65.44
2023-10-04T21:04:14.531Z,65.64
2023-10-04T21:09:17.491Z,65.02
2023-10-04T21:14:22.538Z,64.33
2023-10-04T21:19:24.204Z,64.38
2023-10-04T21:24:27.183Z,63.77
2023-10-04T21:29:28.842Z,65.05
2023-10-04T21:34:30.477Z,65.84
2023-10-04T21:39:33.465Z,66.35
2023-10-04T21:44:34.981Z,65.92
2023-10-04T21:49:36.805Z,65.93
2023-10-04T21:54:39.694Z,65.26
2023-10-04T21:59:41.281Z,65.32
2023-10-04T22:04:42.947Z,64.88
2023-10-04T22:09:46.410Z,65.47
2023-10-04T22:14:48.049Z,64.94
2023-10-04T22:19:49.606Z,65.09
2023-10-04T22:25:02.468Z,64.60
2023-10-04T22:30:06.181Z,64.71
2023-10-04T22:35:08.944Z,64.84
2023-10-04T22:40:15.069Z,65.48
2023-10-04T22:45:17.157Z,65.27
2023-10-04T22:50:19.282Z,64.56
2023-10-04T22:55:22.262Z,64.12
2023-10-04T23:00:24.034Z,63.53
2023-10-04T23:05:26.123Z,63.68
2023-10-04T23:10:29.295Z,63.59
2023-10-04T23:15:31.120Z,64.33
2023-10-04T23:20:32.791Z,63.99
2023-10-04T23:25:35.709Z,63.80
2023-10-04T23:30:37.235Z,63.36
2023-10-04T23:35:38.858Z,63.31
2023-10-04T23:40:42.204Z,63.33
2023-10-04T23:45:43.866Z,63.68
2023-10-04T23:50:45.412Z,63.61
2023-10-04T23:55:50.132Z,64.52
